Sussex, Canada
Current Conditions -  °F | °C
As of 4:00 AM on Sunday 26 Oct 2014 (Local Time) from CYSJ Reporting Station
Overcast Overcast  
Wind Chill: 37°   Ceiling: 8500
Heat Index: 37°   Visibility: 15mi
Dew Point: 37°   Wind: 2mph
Humidity: 100%   Direction: 50°NE
Pressure: 29.48"   Gusts: NA
Location:  45.72°N, 65.52°W
Report Text: CYSJ 260700Z 05002KT 15SM OVC085 03/03 A2948 RMK AC8 SLP986
Loading
Personal Weather Stations






























Interactive Weather Map
Tropical Storm Tracking
New forecast layout! Learn more

10-Day Weather Forecast

Advertisements
Track Severe Weather on mobile